ZLXY/XIY METAR and TAF weather

Enter ICAO airport designator
Station Type Date Time Source
ZLXY METAR 2022/11/30 18:00 UTC NOAA

ZLXY 301800Z 27001MPS CAVOK M06/M08 Q1038 NOSIG


Station Type Date Time Source
ZLXY Decoded METAR 2022/11/30 18:00 UTC NOAA

Xian/Xianyang, China (ZLXY) 34-26N 108-45E
Nov 30, 2022 - 01:00 PM EST / 2022.11.30 1800 UTC
Wind: from the W (270 degrees) at 2 MPH (2 KT):0
Visibility: greater than 7 mile(s):0
Temperature: 21 F (-6 C)
Dew Point: 17 F (-8 C)
Relative Humidity: 85%
Pressure (altimeter): 30.65 in. Hg (1038 hPa)
ob: ZLXY 301800Z 27001MPS CAVOK M06/M08 Q1038 NOSIG
cycle: 18

Station Type Date Time Source
ZLXY TAF 2022/11/30 18:21 UTC NOAA

TAF ZLXY 301502Z 3018/0118 23003MPS 5000 HZ NSC TX01/0107Z TNM07/3022Z

Example: see airport list